createdAt,value
2023-10-29T00:01:51.913Z,3.30
2023-10-29T00:04:19.519Z,3.50
2023-10-29T00:06:47.148Z,3.10
2023-10-29T00:09:14.720Z,3.40
2023-10-29T00:11:42.266Z,4.10
2023-10-29T00:14:09.949Z,3.20
2023-10-29T00:16:37.522Z,3.70
2023-10-29T00:19:05.058Z,3.30
2023-10-29T00:21:35.891Z,3.70
2023-10-29T00:24:03.509Z,3.70
2023-10-29T00:26:31.310Z,3.70
2023-10-29T00:28:58.948Z,4.10
2023-10-29T00:31:26.505Z,4.40
2023-10-29T00:33:54.411Z,4.40
2023-10-29T00:36:22.376Z,4.30
2023-10-29T00:38:49.929Z,4.50
2023-10-29T00:41:17.525Z,4.80
2023-10-29T00:43:45.132Z,4.40
2023-10-29T00:46:13.322Z,4.70
2023-10-29T00:48:40.869Z,4.50
2023-10-29T00:51:08.705Z,5.00
2023-10-29T00:53:36.316Z,5.30
2023-10-29T00:56:04.886Z,5.20
2023-10-29T00:58:32.461Z,6.10
2023-10-29T01:01:00.004Z,5.30
2023-10-29T01:03:27.709Z,5.30
2023-10-29T01:05:55.661Z,5.20
2023-10-29T01:08:23.313Z,5.60
2023-10-29T01:10:52.704Z,5.40
2023-10-29T01:13:20.461Z,5.60
2023-10-29T01:15:48.245Z,5.40
2023-10-29T01:18:15.844Z,5.80
2023-10-29T01:20:44.261Z,5.90
2023-10-29T01:23:12.012Z,6.30
2023-10-29T01:25:40.289Z,5.80
2023-10-29T01:28:08.414Z,6.60
2023-10-29T01:30:36.307Z,6.60
2023-10-29T01:33:04.925Z,6.70
2023-10-29T01:35:32.667Z,7.50
2023-10-29T01:38:00.215Z,7.80
2023-10-29T01:40:28.788Z,7.80
2023-10-29T01:42:56.406Z,7.20
2023-10-29T01:45:24.628Z,6.10
2023-10-29T01:47:52.296Z,5.80
2023-10-29T01:50:20.114Z,5.40
2023-10-29T01:52:47.810Z,6.70
2023-10-29T01:55:15.319Z,7.50
2023-10-29T01:57:42.981Z,8.20
2023-10-29T02:00:10.849Z,8.10
2023-10-29T02:02:42.165Z,9.40
2023-10-29T02:05:09.966Z,9.20
2023-10-29T02:07:37.595Z,8.80
2023-10-29T02:10:06.173Z,8.50
2023-10-29T02:12:33.802Z,8.60
2023-10-29T02:15:01.407Z,7.60
2023-10-29T02:17:29.162Z,8.50
2023-10-29T02:19:56.962Z,8.90
2023-10-29T02:22:25.062Z,8.50
2023-10-29T02:24:52.600Z,9.60
2023-10-29T02:27:20.181Z,10.80
2023-10-29T02:29:47.758Z,10.30
2023-10-29T02:32:15.255Z,11.70
2023-10-29T02:34:42.893Z,11.40
2023-10-29T02:37:10.558Z,10.00
2023-10-29T02:39:38.133Z,9.90
2023-10-29T02:42:06.247Z,10.30
2023-10-29T02:44:33.934Z,10.30
2023-10-29T02:47:01.491Z,11.60
2023-10-29T02:49:29.157Z,12.40
2023-10-29T02:51:57.290Z,15.10
2023-10-29T02:54:25.111Z,14.30
2023-10-29T02:56:52.723Z,12.60
2023-10-29T02:59:20.225Z,8.50
2023-10-29T03:01:47.713Z,7.60
2023-10-29T03:04:15.382Z,6.70
2023-10-29T03:06:43.124Z,6.80
2023-10-29T03:09:11.227Z,6.90
2023-10-29T03:11:38.911Z,6.40
2023-10-29T03:14:06.463Z,5.50
2023-10-29T03:16:34.003Z,3.50
2023-10-29T03:19:01.867Z,3.30
2023-10-29T03:21:29.476Z,3.10
2023-10-29T03:23:57.242Z,3.10
2023-10-29T03:26:24.905Z,3.30
2023-10-29T03:28:52.494Z,2.80
2023-10-29T03:31:20.450Z,3.30
2023-10-29T03:33:48.701Z,2.70
2023-10-29T03:36:16.246Z,3.00
2023-10-29T03:38:43.794Z,3.00
2023-10-29T03:41:21.598Z,2.70
2023-10-29T03:43:52.545Z,2.50
2023-10-29T03:46:20.367Z,2.80
2023-10-29T03:48:47.964Z,2.60
2023-10-29T03:51:15.722Z,2.40
2023-10-29T03:53:43.392Z,2.60
2023-10-29T03:56:10.985Z,2.60
2023-10-29T03:58:38.483Z,2.30
2023-10-29T04:01:06.094Z,2.50
2023-10-29T04:03:33.949Z,2.70
2023-10-29T04:06:01.733Z,2.30
2023-10-29T04:08:29.327Z,2.10
2023-10-29T04:10:56.857Z,2.40
2023-10-29T04:13:24.351Z,2.50
2023-10-29T04:15:52.186Z,2.60
2023-10-29T04:18:20.933Z,2.90
2023-10-29T04:30:43.303Z,2.80
2023-10-29T04:33:11.052Z,2.80
2023-10-29T04:35:38.712Z,2.70
2023-10-29T04:38:06.329Z,3.00
2023-10-29T04:40:34.318Z,2.60
2023-10-29T04:43:01.845Z,2.50
2023-10-29T04:45:29.523Z,2.90
2023-10-29T04:47:57.190Z,2.90
2023-10-29T04:50:24.786Z,2.60
2023-10-29T04:52:52.934Z,2.70
2023-10-29T04:55:20.496Z,2.70
2023-10-29T04:57:49.006Z,3.10
2023-10-29T05:00:16.732Z,2.90
2023-10-29T05:02:44.411Z,2.40
2023-10-29T05:05:12.121Z,2.60
2023-10-29T05:07:39.721Z,2.90
2023-10-29T05:10:07.445Z,3.10
2023-10-29T05:12:34.938Z,3.00
2023-10-29T05:15:02.550Z,3.00
2023-10-29T05:17:30.590Z,3.20
2023-10-29T05:19:58.147Z,3.40
2023-10-29T05:22:25.750Z,3.20
2023-10-29T05:24:53.298Z,3.10
2023-10-29T05:27:21.455Z,3.10
2023-10-29T05:29:49.006Z,3.40
2023-10-29T05:32:16.564Z,3.20
2023-10-29T05:34:44.131Z,3.60
2023-10-29T05:37:12.454Z,3.80
2023-10-29T05:39:39.987Z,3.50
2023-10-29T05:42:07.543Z,3.40
2023-10-29T05:44:35.201Z,3.50
2023-10-29T05:47:03.151Z,3.20
2023-10-29T05:49:30.677Z,3.20
2023-10-29T05:51:58.288Z,3.50
2023-10-29T05:54:25.851Z,3.10
2023-10-29T05:56:53.430Z,3.60
2023-10-29T05:59:22.028Z,3.10
2023-10-29T06:01:49.561Z,2.90
2023-10-29T06:04:17.152Z,3.60
2023-10-29T06:06:45.253Z,2.90
2023-10-29T06:09:23.397Z,3.00
2023-10-29T06:11:54.312Z,2.70
2023-10-29T06:14:24.154Z,2.70
2023-10-29T06:17:05.956Z,2.80
2023-10-29T06:19:40.187Z,3.20
2023-10-29T06:22:09.405Z,4.20
2023-10-29T06:24:37.028Z,3.30
2023-10-29T06:27:04.755Z,3.20
2023-10-29T06:29:32.411Z,3.50
2023-10-29T06:32:00.286Z,3.60
2023-10-29T06:34:27.826Z,3.30
2023-10-29T06:36:55.349Z,3.50
2023-10-29T06:39:22.961Z,3.70
2023-10-29T06:41:50.554Z,3.30
2023-10-29T06:44:18.553Z,3.70
2023-10-29T06:46:46.472Z,3.30
2023-10-29T06:49:14.442Z,9.10
2023-10-29T06:51:43.375Z,4.10
2023-10-29T06:54:10.885Z,3.50
2023-10-29T06:56:38.521Z,3.80
2023-10-29T06:59:06.097Z,3.30
2023-10-29T07:01:33.697Z,4.00
2023-10-29T07:04:01.321Z,3.90
2023-10-29T07:06:28.986Z,3.30
2023-10-29T07:08:56.537Z,3.70
2023-10-29T07:11:25.051Z,3.60
2023-10-29T07:13:53.976Z,3.70
2023-10-29T07:16:21.517Z,3.90
2023-10-29T07:18:49.222Z,3.80
2023-10-29T07:21:16.844Z,3.80
2023-10-29T07:23:44.437Z,3.50
2023-10-29T07:26:12.122Z,3.40
2023-10-29T07:28:39.829Z,3.50
2023-10-29T07:31:07.373Z,3.40
2023-10-29T07:33:35.022Z,3.00
2023-10-29T07:36:06.220Z,3.60
2023-10-29T07:38:33.942Z,3.50
2023-10-29T07:41:01.658Z,3.70
2023-10-29T07:43:29.273Z,3.50
2023-10-29T07:46:06.023Z,3.60
2023-10-29T07:48:33.764Z,3.70
2023-10-29T07:51:01.608Z,3.50
2023-10-29T07:53:32.057Z,3.00
2023-10-29T07:56:12.254Z,3.10
2023-10-29T07:58:39.926Z,2.60
2023-10-29T08:01:11.081Z,2.90
2023-10-29T08:03:39.513Z,2.80
2023-10-29T08:06:07.282Z,2.60
2023-10-29T08:08:34.998Z,2.50
2023-10-29T08:11:02.617Z,2.40
2023-10-29T08:13:30.321Z,2.90
2023-10-29T08:15:58.975Z,2.80
2023-10-29T08:18:26.753Z,2.20
2023-10-29T08:20:54.507Z,2.50
2023-10-29T08:23:22.132Z,2.70
2023-10-29T08:25:49.724Z,2.40
2023-10-29T08:28:17.266Z,2.70
2023-10-29T08:30:45.005Z,3.10
2023-10-29T08:33:12.693Z,2.70
2023-10-29T08:35:44.646Z,2.60
2023-10-29T08:38:12.219Z,3.20
2023-10-29T08:40:39.840Z,2.80
2023-10-29T08:43:07.710Z,2.80
2023-10-29T08:45:42.136Z,2.80
2023-10-29T08:48:12.079Z,3.10
2023-10-29T08:50:40.136Z,3.00
2023-10-29T08:53:07.789Z,2.70
2023-10-29T08:55:36.534Z,2.60
2023-10-29T08:58:04.462Z,2.80
2023-10-29T09:00:45.498Z,2.60
2023-10-29T09:03:17.421Z,2.40
2023-10-29T09:05:45.395Z,2.50
2023-10-29T09:08:13.218Z,3.10
2023-10-29T09:10:44.252Z,2.70
2023-10-29T09:13:12.286Z,2.40
2023-10-29T09:15:39.943Z,2.60
2023-10-29T09:18:07.909Z,3.20
2023-10-29T09:20:36.043Z,3.10
2023-10-29T09:23:03.671Z,3.20
2023-10-29T09:25:31.285Z,3.20
2023-10-29T09:27:59.513Z,3.80
2023-10-29T09:30:27.184Z,4.30
2023-10-29T09:32:57.393Z,3.70
2023-10-29T09:35:26.181Z,4.20
2023-10-29T09:37:53.699Z,4.20
2023-10-29T09:40:21.315Z,4.10
2023-10-29T09:42:52.290Z,4.00
2023-10-29T09:45:20.895Z,3.90
2023-10-29T09:47:48.662Z,4.00
2023-10-29T09:50:16.291Z,4.90
2023-10-29T09:52:43.854Z,4.10
2023-10-29T09:55:12.282Z,4.50
2023-10-29T09:57:41.088Z,4.00
2023-10-29T10:00:10.500Z,3.80
2023-10-29T10:02:53.291Z,4.80
2023-10-29T10:05:21.929Z,6.30
2023-10-29T10:07:49.812Z,7.00
2023-10-29T10:10:18.332Z,6.20
2023-10-29T10:12:49.593Z,7.10
2023-10-29T10:15:17.602Z,6.60
2023-10-29T10:17:50.213Z,6.40
2023-10-29T10:20:20.964Z,5.60
2023-10-29T10:22:49.271Z,4.90
2023-10-29T10:25:17.918Z,4.60
2023-10-29T10:27:52.543Z,4.10
2023-10-29T10:30:29.303Z,3.90
2023-10-29T10:33:13.045Z,4.00
2023-10-29T10:35:42.068Z,5.30
2023-10-29T10:38:09.690Z,4.20
2023-10-29T10:40:37.242Z,3.40
2023-10-29T10:43:05.166Z,3.80
2023-10-29T10:45:32.864Z,3.80
2023-10-29T10:48:02.273Z,3.70
2023-10-29T10:50:30.046Z,3.10
2023-10-29T10:52:58.147Z,3.20
2023-10-29T10:55:44.247Z,3.20
2023-10-29T10:58:17.008Z,3.70
2023-10-29T11:00:44.610Z,3.80
2023-10-29T11:03:25.172Z,3.20
2023-10-29T11:05:59.340Z,2.90
2023-10-29T11:08:26.971Z,3.60
2023-10-29T11:10:58.713Z,4.00
2023-10-29T11:13:27.961Z,4.20
2023-10-29T11:15:56.804Z,4.40
2023-10-29T11:18:31.744Z,4.70
2023-10-29T11:21:01.531Z,4.90
2023-10-29T11:23:29.700Z,5.30
2023-10-29T11:26:16.156Z,4.70
2023-10-29T11:28:44.933Z,3.10
2023-10-29T11:31:15.932Z,2.90
2023-10-29T11:33:45.062Z,2.90
2023-10-29T11:36:32.783Z,2.50
2023-10-29T11:39:21.555Z,2.80
2023-10-29T11:41:50.559Z,2.70
2023-10-29T11:44:25.022Z,3.30
2023-10-29T11:47:04.856Z,3.80
2023-10-29T11:49:52.756Z,4.30
2023-10-29T11:52:20.526Z,6.80
2023-10-29T11:54:48.168Z,6.10
2023-10-29T11:57:16.272Z,7.10
2023-10-29T11:59:55.001Z,6.90
2023-10-29T12:02:23.360Z,6.70
2023-10-29T12:04:51.091Z,6.30
2023-10-29T12:07:26.504Z,6.90
2023-10-29T12:10:00.933Z,7.50
2023-10-29T12:12:28.514Z,6.10
2023-10-29T12:14:56.133Z,5.90
2023-10-29T12:17:23.672Z,6.30
2023-10-29T12:19:51.318Z,12.10
2023-10-29T12:22:25.850Z,8.20
2023-10-29T12:24:55.030Z,7.90
2023-10-29T12:27:25.691Z,8.30
2023-10-29T12:29:53.333Z,7.40
2023-10-29T12:32:24.605Z,7.40
2023-10-29T12:34:56.471Z,6.70
2023-10-29T12:37:24.874Z,6.40
2023-10-29T12:39:54.404Z,7.10
2023-10-29T12:42:22.566Z,6.10
2023-10-29T12:44:56.467Z,6.20
2023-10-29T12:47:24.381Z,4.80
2023-10-29T12:50:04.803Z,5.30
2023-10-29T12:52:32.535Z,4.50
2023-10-29T12:55:00.254Z,4.50
2023-10-29T12:57:27.830Z,3.70
2023-10-29T12:59:55.456Z,4.00
2023-10-29T13:02:27.430Z,3.30
2023-10-29T13:04:55.106Z,3.20
2023-10-29T13:07:23.479Z,3.10
2023-10-29T13:09:53.742Z,3.10
2023-10-29T13:12:21.415Z,3.10
2023-10-29T13:14:50.090Z,2.70
2023-10-29T13:17:18.235Z,3.00
2023-10-29T13:19:45.994Z,2.90
2023-10-29T13:22:13.520Z,2.70
2023-10-29T13:24:41.135Z,2.70
2023-10-29T13:27:08.839Z,2.70
2023-10-29T13:29:38.970Z,2.50
2023-10-29T13:32:07.632Z,2.30
2023-10-29T13:34:35.214Z,2.40
2023-10-29T13:37:02.775Z,2.90
2023-10-29T13:39:30.495Z,2.20
2023-10-29T13:41:58.295Z,2.50
2023-10-29T13:44:25.860Z,2.50
2023-10-29T13:46:53.538Z,2.30
2023-10-29T13:49:21.494Z,2.70
2023-10-29T13:51:49.046Z,2.10
2023-10-29T13:54:16.760Z,2.60
2023-10-29T13:56:44.870Z,2.20
2023-10-29T13:59:12.894Z,2.20
2023-10-29T14:01:41.415Z,2.20
2023-10-29T14:04:08.986Z,2.20
2023-10-29T14:06:36.651Z,3.60
2023-10-29T14:09:04.812Z,2.60
2023-10-29T14:11:32.493Z,3.00
2023-10-29T14:14:00.046Z,2.80
2023-10-29T14:16:41.141Z,2.90
2023-10-29T14:19:08.833Z,4.80
2023-10-29T14:21:36.372Z,3.60
2023-10-29T14:24:04.954Z,3.00
2023-10-29T14:26:32.606Z,2.60
2023-10-29T14:29:00.083Z,3.20
2023-10-29T14:31:27.714Z,3.60
2023-10-29T14:33:55.226Z,4.10
2023-10-29T14:36:24.338Z,5.10
2023-10-29T14:38:52.013Z,4.80
2023-10-29T14:41:19.582Z,4.50
2023-10-29T14:43:47.154Z,4.40
2023-10-29T14:46:14.791Z,4.80
2023-10-29T14:48:43.839Z,4.30
2023-10-29T14:51:11.382Z,4.90
2023-10-29T14:53:38.946Z,4.60
2023-10-29T14:56:06.681Z,4.90
2023-10-29T14:58:34.210Z,4.20
2023-10-29T15:01:06.155Z,5.70
2023-10-29T15:03:34.050Z,6.00
2023-10-29T15:06:01.797Z,5.90
2023-10-29T15:08:30.129Z,6.40
2023-10-29T15:10:58.847Z,6.20
2023-10-29T15:13:26.345Z,6.30
2023-10-29T15:15:54.041Z,6.60
2023-10-29T15:18:21.658Z,6.50
2023-10-29T15:21:00.229Z,6.80
2023-10-29T15:23:28.791Z,5.90
2023-10-29T15:25:56.318Z,6.90
2023-10-29T15:28:23.838Z,7.90
2023-10-29T15:30:51.714Z,7.70
2023-10-29T15:33:19.257Z,6.70
2023-10-29T15:35:46.982Z,6.40
2023-10-29T15:38:15.005Z,6.00
2023-10-29T15:40:42.879Z,6.00
2023-10-29T15:43:10.485Z,6.80
2023-10-29T15:45:39.590Z,5.80
2023-10-29T15:48:07.356Z,5.40
2023-10-29T15:50:36.094Z,5.70
2023-10-29T15:53:03.688Z,6.80
2023-10-29T15:55:32.975Z,7.50
2023-10-29T15:58:00.581Z,7.40
2023-10-29T16:00:28.520Z,7.10
2023-10-29T16:02:56.307Z,7.30
2023-10-29T16:05:23.967Z,7.10
2023-10-29T16:07:51.703Z,8.30
2023-10-29T16:10:19.255Z,8.20
2023-10-29T16:12:46.740Z,10.10
2023-10-29T16:15:14.421Z,9.60
2023-10-29T16:17:42.065Z,9.40
2023-10-29T16:20:09.926Z,10.10
2023-10-29T16:22:37.526Z,10.90
2023-10-29T16:25:05.265Z,10.00
2023-10-29T16:27:33.711Z,8.40
2023-10-29T16:30:01.498Z,8.40
2023-10-29T16:32:29.114Z,8.70
2023-10-29T16:34:57.206Z,8.30
2023-10-29T16:37:24.840Z,8.50
2023-10-29T16:39:52.414Z,8.70
2023-10-29T16:42:20.356Z,8.90
2023-10-29T16:44:48.120Z,8.20
2023-10-29T16:49:21.130Z,7.90
2023-10-29T16:51:48.755Z,8.90
2023-10-29T16:54:16.379Z,8.00
2023-10-29T16:56:44.031Z,7.30
2023-10-29T16:59:11.744Z,7.90
2023-10-29T17:01:40.349Z,7.70
2023-10-29T17:04:08.108Z,7.70
2023-10-29T17:06:35.757Z,8.40
2023-10-29T17:09:03.453Z,10.40
2023-10-29T17:11:31.085Z,9.30
2023-10-29T17:13:58.717Z,10.50
2023-10-29T17:16:26.236Z,10.70
2023-10-29T17:18:53.746Z,10.70
2023-10-29T17:21:21.641Z,9.70
2023-10-29T17:23:49.502Z,9.90
2023-10-29T17:26:17.598Z,9.50
2023-10-29T17:28:45.775Z,9.70
2023-10-29T17:31:17.357Z,10.20
2023-10-29T17:33:45.210Z,10.60
2023-10-29T17:36:13.813Z,10.80
2023-10-29T17:38:41.681Z,10.60
2023-10-29T17:41:20.315Z,10.50
2023-10-29T17:43:48.070Z,10.20
2023-10-29T17:46:17.354Z,9.80
2023-10-29T17:48:45.450Z,11.00
2023-10-29T17:51:13.400Z,11.10
2023-10-29T17:53:48.145Z,11.20
2023-10-29T17:56:17.912Z,10.90
2023-10-29T17:58:45.805Z,12.20
2023-10-29T18:01:13.531Z,12.00
2023-10-29T18:03:41.345Z,11.00
2023-10-29T18:06:35.394Z,11.80
2023-10-29T18:09:03.010Z,12.70
2023-10-29T18:11:31.025Z,11.10
2023-10-29T18:13:58.887Z,11.30
2023-10-29T18:16:26.651Z,11.90
2023-10-29T18:18:54.442Z,12.80
2023-10-29T18:21:22.249Z,11.80
2023-10-29T18:23:51.100Z,12.10
2023-10-29T18:26:18.934Z,12.70
2023-10-29T18:28:46.716Z,12.00
2023-10-29T18:31:15.188Z,11.70
2023-10-29T18:33:42.924Z,10.80
2023-10-29T18:36:10.932Z,11.20
2023-10-29T18:38:38.632Z,12.60
2023-10-29T18:41:13.246Z,12.80
2023-10-29T18:43:40.824Z,11.60
2023-10-29T18:46:09.000Z,12.30
2023-10-29T18:48:37.009Z,12.90
2023-10-29T18:51:05.115Z,13.90
2023-10-29T18:53:32.733Z,15.10
2023-10-29T18:56:00.399Z,14.70
2023-10-29T18:58:28.264Z,12.50
2023-10-29T19:00:55.984Z,14.30
2023-10-29T19:03:24.530Z,14.80
2023-10-29T19:05:52.315Z,14.40
2023-10-29T19:08:20.079Z,13.60
2023-10-29T19:10:49.250Z,16.70
2023-10-29T19:13:16.978Z,16.40
2023-10-29T19:15:47.194Z,17.00
2023-10-29T19:18:15.987Z,16.40
2023-10-29T19:20:43.718Z,14.00
2023-10-29T19:23:11.325Z,13.80
2023-10-29T19:25:38.989Z,16.30
2023-10-29T19:28:06.602Z,15.10
2023-10-29T19:30:34.339Z,16.80
2023-10-29T19:33:02.608Z,14.70
2023-10-29T19:35:32.050Z,14.20
2023-10-29T19:37:59.639Z,17.10
2023-10-29T19:40:27.253Z,17.20
2023-10-29T19:42:54.910Z,18.40
2023-10-29T19:45:22.676Z,20.50
2023-10-29T19:47:50.323Z,19.20
2023-10-29T19:50:18.258Z,19.60
2023-10-29T19:52:45.789Z,20.80
2023-10-29T19:55:14.925Z,21.60
2023-10-29T19:57:42.839Z,19.00
2023-10-29T20:00:10.636Z,19.10
2023-10-29T20:02:38.311Z,19.60
2023-10-29T20:05:06.408Z,23.60
2023-10-29T20:07:33.970Z,20.00
2023-10-29T20:10:01.511Z,19.70
2023-10-29T20:12:30.035Z,19.90
2023-10-29T20:14:57.797Z,19.80
2023-10-29T20:17:25.363Z,23.50
2023-10-29T20:19:52.876Z,25.80
2023-10-29T20:22:20.871Z,27.10
2023-10-29T20:24:53.218Z,28.10
2023-10-29T20:27:20.840Z,26.90
2023-10-29T20:29:48.791Z,28.40
2023-10-29T20:32:17.369Z,26.40
2023-10-29T20:34:44.974Z,24.20
2023-10-29T20:37:13.038Z,24.70
2023-10-29T20:39:40.796Z,25.40
2023-10-29T20:42:08.484Z,26.90
2023-10-29T20:44:38.347Z,27.70
2023-10-29T20:47:06.629Z,26.60
2023-10-29T20:49:34.177Z,25.40
2023-10-29T20:52:01.756Z,26.10
2023-10-29T20:54:29.430Z,24.10
2023-10-29T20:56:57.069Z,23.60
2023-10-29T20:59:26.095Z,24.40
2023-10-29T21:01:54.029Z,22.00
2023-10-29T21:04:21.712Z,21.90
2023-10-29T21:06:49.425Z,22.00
2023-10-29T21:09:17.033Z,20.70
2023-10-29T21:11:44.642Z,20.80
2023-10-29T21:14:12.210Z,21.00
2023-10-29T21:16:39.810Z,22.80
2023-10-29T21:19:07.727Z,20.60
2023-10-29T21:21:35.329Z,20.40
2023-10-29T21:24:03.117Z,19.60
2023-10-29T21:26:30.715Z,19.40
2023-10-29T21:28:58.259Z,19.20
2023-10-29T21:31:26.046Z,22.40
2023-10-29T21:33:53.620Z,25.90
2023-10-29T21:36:21.249Z,26.90
2023-10-29T21:38:48.845Z,28.40
2023-10-29T21:41:16.611Z,27.30
2023-10-29T21:43:44.480Z,25.30
2023-10-29T21:46:12.620Z,24.70
2023-10-29T21:48:40.378Z,22.50
2023-10-29T21:51:08.244Z,22.90
2023-10-29T21:53:36.068Z,21.80
2023-10-29T21:56:06.898Z,22.30
2023-10-29T21:58:37.537Z,22.10
2023-10-29T22:01:05.520Z,22.70
2023-10-29T22:03:35.011Z,21.50
2023-10-29T22:06:05.085Z,22.40
2023-10-29T22:08:32.775Z,20.70
2023-10-29T22:11:01.009Z,21.20
2023-10-29T22:13:28.879Z,16.70
2023-10-29T22:16:02.841Z,18.10
2023-10-29T22:18:30.439Z,17.80
2023-10-29T22:21:01.924Z,17.40
2023-10-29T22:23:29.533Z,16.30
2023-10-29T22:25:57.105Z,16.50
2023-10-29T22:28:24.610Z,16.20
2023-10-29T22:30:52.296Z,16.80
2023-10-29T22:33:19.917Z,17.50
2023-10-29T22:35:51.304Z,14.70
2023-10-29T22:38:18.988Z,13.80
2023-10-29T22:40:46.606Z,12.90
2023-10-29T22:43:14.167Z,14.20
2023-10-29T22:45:42.214Z,15.80
2023-10-29T22:48:09.867Z,14.90
2023-10-29T22:50:37.561Z,16.60
2023-10-29T22:53:05.063Z,15.30
2023-10-29T22:55:32.702Z,14.60
2023-10-29T22:58:00.219Z,15.10
2023-10-29T23:00:27.794Z,11.70
2023-10-29T23:02:55.954Z,13.20
2023-10-29T23:05:23.817Z,12.50
2023-10-29T23:07:51.281Z,11.80
2023-10-29T23:10:18.814Z,12.20
2023-10-29T23:12:46.367Z,12.20
2023-10-29T23:15:13.855Z,10.60
2023-10-29T23:17:41.975Z,10.50
2023-10-29T23:20:10.982Z,10.30
2023-10-29T23:22:38.529Z,10.10
2023-10-29T23:25:06.465Z,10.10
2023-10-29T23:27:34.855Z,10.70
2023-10-29T23:30:04.587Z,9.40
2023-10-29T23:32:32.193Z,9.20
2023-10-29T23:34:59.828Z,8.30
2023-10-29T23:37:27.369Z,7.50
2023-10-29T23:39:55.350Z,7.80
2023-10-29T23:42:23.127Z,6.40
2023-10-29T23:44:50.774Z,6.20
2023-10-29T23:47:18.354Z,5.10
2023-10-29T23:49:45.851Z,5.10
2023-10-29T23:52:13.336Z,5.80
2023-10-29T23:54:45.845Z,5.70
2023-10-29T23:57:13.544Z,5.30
2023-10-29T23:59:41.135Z,5.70
